sensor_id;sensor_type;location;lat;lon;timestamp;pressure;altitude;pressure_sealevel;temperature;humidity
11987;BME280;6053;51.382;6.768;2023-04-06T00:00:37;101445.69;;;11.09;63.44
11987;BME280;6053;51.382;6.768;2023-04-06T00:03:06;101444.84;;;11.08;64.02
11987;BME280;6053;51.382;6.768;2023-04-06T00:05:34;101446.38;;;11.04;63.80
11987;BME280;6053;51.382;6.768;2023-04-06T00:08:03;101445.72;;;11.02;64.06
11987;BME280;6053;51.382;6.768;2023-04-06T00:10:33;101442.13;;;11.02;64.20
11987;BME280;6053;51.382;6.768;2023-04-06T00:13:02;101433.44;;;10.98;64.15
11987;BME280;6053;51.382;6.768;2023-04-06T00:15:30;101441.47;;;11.00;64.04
11987;BME280;6053;51.382;6.768;2023-04-06T00:17:59;101440.22;;;10.96;64.33
11987;BME280;6053;51.382;6.768;2023-04-06T00:20:28;101440.22;;;10.96;64.37
11987;BME280;6053;51.382;6.768;2023-04-06T00:22:56;101435.16;;;10.93;64.31
11987;BME280;6053;51.382;6.768;2023-04-06T00:25:26;101437.91;;;10.93;64.21
11987;BME280;6053;51.382;6.768;2023-04-06T00:27:56;101440.06;;;10.91;64.13
11987;BME280;6053;51.382;6.768;2023-04-06T00:30:24;101437.72;;;10.88;64.57
11987;BME280;6053;51.382;6.768;2023-04-06T00:32:53;101431.78;;;10.84;64.17
11987;BME280;6053;51.382;6.768;2023-04-06T00:35:21;101425.88;;;10.80;64.69
11987;BME280;6053;51.382;6.768;2023-04-06T00:37:50;101425.88;;;10.80;64.63
11987;BME280;6053;51.382;6.768;2023-04-06T00:40:18;101426.94;;;10.73;64.79
11987;BME280;6053;51.382;6.768;2023-04-06T00:42:47;101423.31;;;10.79;64.59
11987;BME280;6053;51.382;6.768;2023-04-06T00:45:17;101425.47;;;10.70;65.00
11987;BME280;6053;51.382;6.768;2023-04-06T00:47:46;101420.16;;;10.69;64.71
11987;BME280;6053;51.382;6.768;2023-04-06T00:50:14;101426.97;;;10.53;65.41
11987;BME280;6053;51.382;6.768;2023-04-06T00:52:43;101419.34;;;10.48;65.63
11987;BME280;6053;51.382;6.768;2023-04-06T00:55:11;101414.66;;;10.55;65.43
11987;BME280;6053;51.382;6.768;2023-04-06T00:57:40;101417.22;;;10.57;65.40
11987;BME280;6053;51.382;6.768;2023-04-06T01:00:09;101409.97;;;10.62;65.15
11987;BME280;6053;51.382;6.768;2023-04-06T01:02:39;101407.03;;;10.64;64.63
11987;BME280;6053;51.382;6.768;2023-04-06T01:05:08;101401.50;;;10.57;65.13
11987;BME280;6053;51.382;6.768;2023-04-06T01:07:37;101408.09;;;10.56;64.94
11987;BME280;6053;51.382;6.768;2023-04-06T01:10:06;101395.56;;;10.60;64.90
11987;BME280;6053;51.382;6.768;2023-04-06T01:12:35;101391.75;;;10.55;64.93
11987;BME280;6053;51.382;6.768;2023-04-06T01:15:05;101392.19;;;10.52;65.08
11987;BME280;6053;51.382;6.768;2023-04-06T01:17:34;101390.28;;;10.52;65.01
11987;BME280;6053;51.382;6.768;2023-04-06T01:20:06;101384.97;;;10.51;65.08
11987;BME280;6053;51.382;6.768;2023-04-06T01:22:36;101388.41;;;10.46;65.06
11987;BME280;6053;51.382;6.768;2023-04-06T01:25:05;101395.81;;;10.46;65.08
11987;BME280;6053;51.382;6.768;2023-04-06T01:27:34;101385.19;;;10.43;65.20
11987;BME280;6053;51.382;6.768;2023-04-06T01:30:03;101390.94;;;10.41;65.24
11987;BME280;6053;51.382;6.768;2023-04-06T01:32:32;101385.00;;;10.37;65.45
11987;BME280;6053;51.382;6.768;2023-04-06T01:35:00;101379.06;;;10.41;65.39
11987;BME280;6053;51.382;6.768;2023-04-06T01:37:29;101378.25;;;10.33;65.32
11987;BME280;6053;51.382;6.768;2023-04-06T01:40:01;101371.88;;;10.33;65.45
11987;BME280;6053;51.382;6.768;2023-04-06T01:42:29;101372.72;;;10.33;65.08
11987;BME280;6053;51.382;6.768;2023-04-06T01:44:58;101369.31;;;10.31;65.55
11987;BME280;6053;51.382;6.768;2023-04-06T01:47:26;101381.41;;;10.17;65.64
11987;BME280;6053;51.382;6.768;2023-04-06T01:49:55;101362.09;;;10.24;65.47
11987;BME280;6053;51.382;6.768;2023-04-06T01:52:23;101360.19;;;10.24;65.47
11987;BME280;6053;51.382;6.768;2023-04-06T01:54:51;101374.41;;;10.21;65.54
11987;BME280;6053;51.382;6.768;2023-04-06T01:57:21;101368.66;;;10.23;65.26
11987;BME280;6053;51.382;6.768;2023-04-06T01:59:49;101371.00;;;10.19;65.56
11987;BME280;6053;51.382;6.768;2023-04-06T02:02:17;101366.38;;;10.20;65.58
11987;BME280;6053;51.382;6.768;2023-04-06T02:04:46;101370.38;;;10.17;65.59
11987;BME280;6053;51.382;6.768;2023-04-06T02:07:14;101362.75;;;10.12;65.63
11987;BME280;6053;51.382;6.768;2023-04-06T02:09:42;101361.06;;;10.11;65.70
11987;BME280;6053;51.382;6.768;2023-04-06T02:12:11;101362.56;;;10.07;65.81
11987;BME280;6053;51.382;6.768;2023-04-06T02:14:41;101364.47;;;10.07;65.69
11987;BME280;6053;51.382;6.768;2023-04-06T02:17:09;101367.41;;;10.05;65.78
11987;BME280;6053;51.382;6.768;2023-04-06T02:19:37;101360.88;;;10.06;65.86
11987;BME280;6053;51.382;6.768;2023-04-06T02:22:05;101356.81;;;10.02;65.99
11987;BME280;6053;51.382;6.768;2023-04-06T02:24:34;101362.34;;;10.02;65.80
11987;BME280;6053;51.382;6.768;2023-04-06T02:27:02;101357.25;;;9.99;66.02
11987;BME280;6053;51.382;6.768;2023-04-06T02:29:30;101361.91;;;9.99;66.07
11987;BME280;6053;51.382;6.768;2023-04-06T02:32:00;101358.53;;;9.97;65.96
11987;BME280;6053;51.382;6.768;2023-04-06T02:34:29;101355.13;;;9.95;66.03
11987;BME280;6053;51.382;6.768;2023-04-06T02:36:57;101351.13;;;9.90;66.35
11987;BME280;6053;51.382;6.768;2023-04-06T02:39:25;101353.03;;;9.90;65.98
11987;BME280;6053;51.382;6.768;2023-04-06T02:41:53;101343.50;;;9.86;66.28
11987;BME280;6053;51.382;6.768;2023-04-06T02:44:22;101346.88;;;9.88;66.24
11987;BME280;6053;51.382;6.768;2023-04-06T02:46:50;101351.78;;;9.86;66.12
11987;BME280;6053;51.382;6.768;2023-04-06T02:49:20;101347.72;;;9.82;66.36
11987;BME280;6053;51.382;6.768;2023-04-06T02:51:48;101346.88;;;9.81;66.21
11987;BME280;6053;51.382;6.768;2023-04-06T02:54:16;101343.06;;;9.82;66.34
11987;BME280;6053;51.382;6.768;2023-04-06T02:56:44;101343.06;;;9.82;66.35
11987;BME280;6053;51.382;6.768;2023-04-06T02:59:13;101344.78;;;9.77;66.29
11987;BME280;6053;51.382;6.768;2023-04-06T03:01:41;101338.19;;;9.78;66.38
11987;BME280;6053;51.382;6.768;2023-04-06T03:04:09;101339.88;;;9.72;66.75
11987;BME280;6053;51.382;6.768;2023-04-06T03:06:39;101340.53;;;9.67;66.59
11987;BME280;6053;51.382;6.768;2023-04-06T03:09:07;101342.44;;;9.67;66.52
11987;BME280;6053;51.382;6.768;2023-04-06T03:11:36;101343.28;;;9.67;66.70
11987;BME280;6053;51.382;6.768;2023-04-06T03:14:04;101342.44;;;9.67;66.40
11987;BME280;6053;51.382;6.768;2023-04-06T03:16:32;101336.94;;;9.67;66.33
11987;BME280;6053;51.382;6.768;2023-04-06T03:19:01;101330.34;;;9.61;66.62
11987;BME280;6053;51.382;6.768;2023-04-06T03:21:29;101339.88;;;9.65;66.65
11987;BME280;6053;51.382;6.768;2023-04-06T03:23:58;101333.34;;;9.60;67.00
11987;BME280;6053;51.382;6.768;2023-04-06T03:26:26;101336.09;;;9.60;66.45
11987;BME280;6053;51.382;6.768;2023-04-06T03:28:55;101334.59;;;9.57;66.62
11987;BME280;6053;51.382;6.768;2023-04-06T03:31:23;101336.94;;;9.54;67.02
11987;BME280;6053;51.382;6.768;2023-04-06T03:33:51;101334.81;;;9.56;66.72
11987;BME280;6053;51.382;6.768;2023-04-06T03:36:19;101335.84;;;9.55;67.03
11987;BME280;6053;51.382;6.768;2023-04-06T03:38:48;101336.09;;;9.53;66.54
11987;BME280;6053;51.382;6.768;2023-04-06T03:41:17;101339.25;;;9.50;67.10
11987;BME280;6053;51.382;6.768;2023-04-06T03:43:46;101333.75;;;9.43;66.82
11987;BME280;6053;51.382;6.768;2023-04-06T03:46:14;101334.81;;;9.42;66.81
11987;BME280;6053;51.382;6.768;2023-04-06T03:48:43;101335.66;;;9.43;66.92
11987;BME280;6053;51.382;6.768;2023-04-06T03:51:11;101330.34;;;9.41;66.89
11987;BME280;6053;51.382;6.768;2023-04-06T03:53:39;101330.75;;;9.38;67.07
11987;BME280;6053;51.382;6.768;2023-04-06T03:56:07;101322.72;;;9.37;67.39
11987;BME280;6053;51.382;6.768;2023-04-06T03:58:37;101330.97;;;9.37;67.33
11987;BME280;6053;51.382;6.768;2023-04-06T04:01:05;101327.16;;;9.38;67.07
11987;BME280;6053;51.382;6.768;2023-04-06T04:03:33;101319.53;;;9.33;67.40
11987;BME280;6053;51.382;6.768;2023-04-06T04:06:02;101323.13;;;9.34;66.99
11987;BME280;6053;51.382;6.768;2023-04-06T04:08:30;101317.41;;;9.29;67.08
11987;BME280;6053;51.382;6.768;2023-04-06T04:10:58;101328.41;;;9.29;67.20
11987;BME280;6053;51.382;6.768;2023-04-06T04:13:27;101316.78;;;9.27;67.38
11987;BME280;6053;51.382;6.768;2023-04-06T04:15:56;101323.97;;;9.28;67.41
11987;BME280;6053;51.382;6.768;2023-04-06T04:18:24;101330.75;;;9.25;67.54
11987;BME280;6053;51.382;6.768;2023-04-06T04:20:53;101327.97;;;9.25;67.55
11987;BME280;6053;51.382;6.768;2023-04-06T04:23:21;101330.97;;;9.24;67.54
11987;BME280;6053;51.382;6.768;2023-04-06T04:25:49;101326.09;;;9.19;67.33
11987;BME280;6053;51.382;6.768;2023-04-06T04:28:18;101333.69;;;9.17;67.31
11987;BME280;6053;51.382;6.768;2023-04-06T04:30:46;101335.19;;;9.19;67.35
11987;BME280;6053;51.382;6.768;2023-04-06T04:33:16;101334.53;;;9.17;67.52
11987;BME280;6053;51.382;6.768;2023-04-06T04:35:44;101333.94;;;9.15;67.21
11987;BME280;6053;51.382;6.768;2023-04-06T04:38:12;101336.03;;;9.13;67.75
11987;BME280;6053;51.382;6.768;2023-04-06T04:40:40;101332.44;;;9.13;67.53
11987;BME280;6053;51.382;6.768;2023-04-06T04:43:08;101336.03;;;9.13;67.48
11987;BME280;6053;51.382;6.768;2023-04-06T04:45:37;101334.75;;;9.09;67.84
11987;BME280;6053;51.382;6.768;2023-04-06T04:48:05;101328.59;;;9.07;67.85
11987;BME280;6053;51.382;6.768;2023-04-06T04:50:36;101325.84;;;9.07;67.83
11987;BME280;6053;51.382;6.768;2023-04-06T04:53:04;101317.81;;;9.12;67.70
11987;BME280;6053;51.382;6.768;2023-04-06T04:55:33;101323.94;;;9.08;67.61
11987;BME280;6053;51.382;6.768;2023-04-06T04:58:01;101322.44;;;9.05;67.28
11987;BME280;6053;51.382;6.768;2023-04-06T05:00:30;101314.19;;;9.05;67.87
11987;BME280;6053;51.382;6.768;2023-04-06T05:02:58;101329.66;;;9.06;67.32
11987;BME280;6053;51.382;6.768;2023-04-06T05:05:27;101322.25;;;9.07;67.56
11987;BME280;6053;51.382;6.768;2023-04-06T05:07:56;101329.69;;;9.13;67.20
11987;BME280;6053;51.382;6.768;2023-04-06T05:10:25;101329.44;;;9.08;67.50
11987;BME280;6053;51.382;6.768;2023-04-06T05:12:53;101333.47;;;9.12;67.16
11987;BME280;6053;51.382;6.768;2023-04-06T05:15:21;101332.22;;;9.14;66.93
11987;BME280;6053;51.382;6.768;2023-04-06T05:17:50;101329.03;;;9.11;67.13
11987;BME280;6053;51.382;6.768;2023-04-06T05:20:19;101336.03;;;9.13;66.80
11987;BME280;6053;51.382;6.768;2023-04-06T05:22:47;101330.06;;;9.03;67.01
11987;BME280;6053;51.382;6.768;2023-04-06T05:25:17;101330.09;;;9.16;66.81
11987;BME280;6053;51.382;6.768;2023-04-06T05:27:45;101332.22;;;9.14;66.59
11987;BME280;6053;51.382;6.768;2023-04-06T05:30:14;101330.31;;;9.21;66.17
11987;BME280;6053;51.382;6.768;2023-04-06T05:32:42;101323.97;;;9.21;65.98
11987;BME280;6053;51.382;6.768;2023-04-06T05:35:11;101330.56;;;9.60;64.45
11987;BME280;6053;51.382;6.768;2023-04-06T05:37:40;101328.22;;;9.90;63.05
11987;BME280;6053;51.382;6.768;2023-04-06T05:40:09;101319.28;;;10.14;62.09
11987;BME280;6053;51.382;6.768;2023-04-06T05:42:39;101326.03;;;10.32;60.26
11987;BME280;6053;51.382;6.768;2023-04-06T05:45:09;101328.97;;;10.50;59.78
11987;BME280;6053;51.382;6.768;2023-04-06T05:47:43;101321.88;;;10.74;59.26
11987;BME280;6053;51.382;6.768;2023-04-06T05:50:12;101328.13;;;10.95;57.72
11987;BME280;6053;51.382;6.768;2023-04-06T05:52:40;101332.06;;;11.12;57.63
11987;BME280;6053;51.382;6.768;2023-04-06T05:55:10;101333.16;;;11.04;57.77
11987;BME280;6053;51.382;6.768;2023-04-06T05:57:40;101328.97;;;11.33;56.50
11987;BME280;6053;51.382;6.768;2023-04-06T06:00:10;101325.97;;;11.35;56.42
11987;BME280;6053;51.382;6.768;2023-04-06T06:02:38;101332.28;;;11.42;54.08
11987;BME280;6053;51.382;6.768;2023-04-06T06:05:09;101325.31;;;11.01;56.91
11987;BME280;6053;51.382;6.768;2023-04-06T06:07:37;101326.16;;;11.02;55.36
11987;BME280;6053;51.382;6.768;2023-04-06T06:10:07;101327.72;;;11.23;55.25
11987;BME280;6053;51.382;6.768;2023-04-06T06:12:36;101320.28;;;10.92;56.16
11987;BME280;6053;51.382;6.768;2023-04-06T06:15:07;101315.78;;;11.61;53.52
11987;BME280;6053;51.382;6.768;2023-04-06T06:17:35;101320.63;;;11.65;52.84
11987;BME280;6053;51.382;6.768;2023-04-06T06:20:07;101315.88;;;11.47;55.11
11987;BME280;6053;51.382;6.768;2023-04-06T06:22:35;101319.78;;;11.90;53.57
11987;BME280;6053;51.382;6.768;2023-04-06T06:25:04;101311.91;;;10.73;46.45
11987;BME280;6053;51.382;6.768;2023-04-06T06:27:32;101314.97;;;10.45;47.93
11987;BME280;6053;51.382;6.768;2023-04-06T06:30:01;101319.72;;;11.71;50.69
11987;BME280;6053;51.382;6.768;2023-04-06T06:32:31;101312.84;;;11.55;52.53
11987;BME280;6053;51.382;6.768;2023-04-06T06:35:00;101319.22;;;12.06;52.29
11987;BME280;6053;51.382;6.768;2023-04-06T06:37:29;101319.91;;;12.01;48.53
11987;BME280;6053;51.382;6.768;2023-04-06T06:39:57;101323.50;;;12.02;48.67
11987;BME280;6053;51.382;6.768;2023-04-06T06:42:25;101325.84;;;12.42;49.50
11987;BME280;6053;51.382;6.768;2023-04-06T06:44:54;101316.00;;;12.09;49.23
11987;BME280;6053;51.382;6.768;2023-04-06T06:47:22;101321.44;;;11.97;46.00
11987;BME280;6053;51.382;6.768;2023-04-06T06:49:52;101322.06;;;12.73;50.53
11987;BME280;6053;51.382;6.768;2023-04-06T06:52:20;101325.47;;;10.03;47.96
11987;BME280;6053;51.382;6.768;2023-04-06T06:54:50;101326.41;;;11.89;46.87
11987;BME280;6053;51.382;6.768;2023-04-06T06:57:18;101319.16;;;12.68;47.18
11987;BME280;6053;51.382;6.768;2023-04-06T06:59:46;101319.72;;;11.15;46.36
11987;BME280;6053;51.382;6.768;2023-04-06T07:02:14;101309.22;;;12.60;49.24
11987;BME280;6053;51.382;6.768;2023-04-06T07:04:43;101310.28;;;10.46;44.57
11987;BME280;6053;51.382;6.768;2023-04-06T07:07:12;101308.06;;;11.94;49.72
11987;BME280;6053;51.382;6.768;2023-04-06T07:09:40;101303.97;;;10.38;51.26
11987;BME280;6053;51.382;6.768;2023-04-06T07:12:09;101310.53;;;12.02;47.82
11987;BME280;6053;51.382;6.768;2023-04-06T07:14:37;101308.44;;;10.84;46.17
11987;BME280;6053;51.382;6.768;2023-04-06T07:17:05;101299.06;;;11.24;46.73
11987;BME280;6053;51.382;6.768;2023-04-06T07:19:34;101297.25;;;11.36;44.97
11987;BME280;6053;51.382;6.768;2023-04-06T07:22:02;101299.13;;;11.17;49.24
11987;BME280;6053;51.382;6.768;2023-04-06T07:24:32;101299.22;;;11.29;45.35
11987;BME280;6053;51.382;6.768;2023-04-06T07:27:01;101308.44;;;11.98;43.36
11987;BME280;6053;51.382;6.768;2023-04-06T07:29:29;101297.38;;;12.71;47.13
11987;BME280;6053;51.382;6.768;2023-04-06T07:31:57;101299.97;;;13.45;41.90
11987;BME280;6053;51.382;6.768;2023-04-06T07:34:26;101304.06;;;13.54;40.34
11987;BME280;6053;51.382;6.768;2023-04-06T07:36:54;101299.94;;;10.79;46.75
11987;BME280;6053;51.382;6.768;2023-04-06T07:39:23;101297.91;;;10.68;45.69
11987;BME280;6053;51.382;6.768;2023-04-06T07:41:54;101294.06;;;10.69;47.25
11987;BME280;6053;51.382;6.768;2023-04-06T07:44:22;101292.63;;;11.30;49.99
11987;BME280;6053;51.382;6.768;2023-04-06T07:46:51;101299.09;;;11.74;46.81
11987;BME280;6053;51.382;6.768;2023-04-06T07:49:19;101287.91;;;11.62;41.08
11987;BME280;6053;51.382;6.768;2023-04-06T07:51:47;101298.25;;;12.35;43.37
11987;BME280;6053;51.382;6.768;2023-04-06T07:54:15;101305.88;;;12.21;45.96
11987;BME280;6053;51.382;6.768;2023-04-06T07:56:44;101291.88;;;12.83;41.42
11987;BME280;6053;51.382;6.768;2023-04-06T07:59:13;101293.16;;;12.50;43.25
11987;BME280;6053;51.382;6.768;2023-04-06T08:01:41;101290.72;;;12.06;41.62
11987;BME280;6053;51.382;6.768;2023-04-06T08:04:10;101288.03;;;13.14;40.96
11987;BME280;6053;51.382;6.768;2023-04-06T08:06:38;101284.63;;;11.72;41.45
11987;BME280;6053;51.382;6.768;2023-04-06T08:09:08;101286.16;;;12.66;41.80
11987;BME280;6053;51.382;6.768;2023-04-06T08:11:36;101284.94;;;13.23;40.97
11987;BME280;6053;51.382;6.768;2023-04-06T08:14:04;101289.63;;;12.43;41.59
11987;BME280;6053;51.382;6.768;2023-04-06T08:16:34;101287.41;;;11.72;42.82
11987;BME280;6053;51.382;6.768;2023-04-06T08:19:02;101288.50;;;12.33;43.69
11987;BME280;6053;51.382;6.768;2023-04-06T08:21:31;101284.50;;;13.37;39.66
11987;BME280;6053;51.382;6.768;2023-04-06T08:23:59;101283.25;;;13.21;46.02
11987;BME280;6053;51.382;6.768;2023-04-06T08:26:28;101277.88;;;12.30;40.52
11987;BME280;6053;51.382;6.768;2023-04-06T08:28:57;101280.34;;;11.76;40.56
11987;BME280;6053;51.382;6.768;2023-04-06T08:31:25;101278.97;;;12.29;44.04
11987;BME280;6053;51.382;6.768;2023-04-06T08:33:54;101284.97;;;12.74;45.26
11987;BME280;6053;51.382;6.768;2023-04-06T08:36:23;101279.88;;;12.89;46.20
11987;BME280;6053;51.382;6.768;2023-04-06T08:38:51;101269.16;;;12.63;47.70
11987;BME280;6053;51.382;6.768;2023-04-06T08:41:20;101274.00;;;12.67;48.38
11987;BME280;6053;51.382;6.768;2023-04-06T08:43:53;101271.94;;;12.63;41.55
11987;BME280;6053;51.382;6.768;2023-04-06T08:46:24;101269.81;;;12.46;45.61
11987;BME280;6053;51.382;6.768;2023-04-06T08:48:59;101273.44;;;12.77;42.19
11987;BME280;6053;51.382;6.768;2023-04-06T08:51:29;101270.72;;;13.19;41.78
11987;BME280;6053;51.382;6.768;2023-04-06T08:53:59;101267.06;;;13.84;47.97
11987;BME280;6053;51.382;6.768;2023-04-06T08:56:28;101275.03;;;13.57;40.44
11987;BME280;6053;51.382;6.768;2023-04-06T08:58:56;101263.00;;;12.61;38.94
11987;BME280;6053;51.382;6.768;2023-04-06T09:01:27;101270.97;;;12.20;39.63
11987;BME280;6053;51.382;6.768;2023-04-06T09:03:59;101267.50;;;12.07;39.78
11987;BME280;6053;51.382;6.768;2023-04-06T09:06:28;101261.19;;;12.55;43.64
11987;BME280;6053;51.382;6.768;2023-04-06T09:08:59;101273.56;;;12.34;44.79
11987;BME280;6053;51.382;6.768;2023-04-06T09:11:27;101268.41;;;11.57;41.16
11987;BME280;6053;51.382;6.768;2023-04-06T09:13:56;101264.94;;;12.90;40.82
11987;BME280;6053;51.382;6.768;2023-04-06T09:16:25;101262.13;;;12.30;41.32
11987;BME280;6053;51.382;6.768;2023-04-06T09:18:53;101268.50;;;12.12;42.66
11987;BME280;6053;51.382;6.768;2023-04-06T09:21:23;101270.75;;;12.22;41.59
11987;BME280;6053;51.382;6.768;2023-04-06T09:23:58;101263.13;;;12.84;41.84
11987;BME280;6053;51.382;6.768;2023-04-06T09:26:28;101264.94;;;12.60;42.15
11987;BME280;6053;51.382;6.768;2023-04-06T09:28:58;101266.31;;;11.27;42.63
11987;BME280;6053;51.382;6.768;2023-04-06T09:31:30;101260.31;;;11.80;41.90
11987;BME280;6053;51.382;6.768;2023-04-06T09:34:02;101255.69;;;12.18;49.02
11987;BME280;6053;51.382;6.768;2023-04-06T09:36:32;101263.38;;;11.72;42.66
11987;BME280;6053;51.382;6.768;2023-04-06T09:39:03;101256.81;;;12.47;43.46
11987;BME280;6053;51.382;6.768;2023-04-06T09:41:33;101257.59;;;12.36;41.44
11987;BME280;6053;51.382;6.768;2023-04-06T09:44:04;101254.31;;;12.09;41.09
11987;BME280;6053;51.382;6.768;2023-04-06T09:46:35;101255.38;;;12.26;40.36
11987;BME280;6053;51.382;6.768;2023-04-06T09:49:24;101244.72;;;12.60;41.11
11987;BME280;6053;51.382;6.768;2023-04-06T09:51:59;101246.63;;;12.47;43.74
11987;BME280;6053;51.382;6.768;2023-04-06T09:54:29;101245.81;;;12.89;38.99
11987;BME280;6053;51.382;6.768;2023-04-06T09:57:07;101242.47;;;12.38;40.37
11987;BME280;6053;51.382;6.768;2023-04-06T09:59:47;101240.13;;;12.54;42.68
11987;BME280;6053;51.382;6.768;2023-04-06T10:02:24;101241.38;;;12.88;38.71
11987;BME280;6053;51.382;6.768;2023-04-06T10:05:00;101240.97;;;12.84;40.00
11987;BME280;6053;51.382;6.768;2023-04-06T10:07:32;101233.97;;;13.24;41.35
11987;BME280;6053;51.382;6.768;2023-04-06T10:10:05;101239.81;;;13.34;40.23
11987;BME280;6053;51.382;6.768;2023-04-06T10:12:34;101239.44;;;12.88;40.48
11987;BME280;6053;51.382;6.768;2023-04-06T10:15:04;101247.81;;;13.24;40.70
11987;BME280;6053;51.382;6.768;2023-04-06T10:17:32;101240.31;;;13.78;39.97
11987;BME280;6053;51.382;6.768;2023-04-06T10:20:07;101238.56;;;14.24;37.75
11987;BME280;6053;51.382;6.768;2023-04-06T10:22:44;101235.00;;;13.76;40.74
11987;BME280;6053;51.382;6.768;2023-04-06T10:25:17;101241.38;;;14.12;42.36
11987;BME280;6053;51.382;6.768;2023-04-06T10:28:00;101244.63;;;14.09;38.65
11987;BME280;6053;51.382;6.768;2023-04-06T10:30:28;101239.47;;;13.89;42.73
11987;BME280;6053;51.382;6.768;2023-04-06T10:32:57;101242.28;;;12.52;40.19
11987;BME280;6053;51.382;6.768;2023-04-06T10:35:36;101244.41;;;12.98;42.66
11987;BME280;6053;51.382;6.768;2023-04-06T10:38:07;101243.53;;;12.97;42.63
11987;BME280;6053;51.382;6.768;2023-04-06T10:40:37;101242.69;;;12.97;42.30
11987;BME280;6053;51.382;6.768;2023-04-06T10:43:10;101241.00;;;13.26;44.01
11987;BME280;6053;51.382;6.768;2023-04-06T10:45:40;101243.16;;;13.24;44.53
11987;BME280;6053;51.382;6.768;2023-04-06T10:48:14;101240.53;;;13.88;46.70
11987;BME280;6053;51.382;6.768;2023-04-06T10:50:44;101244.78;;;13.67;43.02
11987;BME280;6053;51.382;6.768;2023-04-06T10:53:21;101246.31;;;12.67;42.03
11987;BME280;6053;51.382;6.768;2023-04-06T10:55:50;101248.50;;;12.95;46.86
11987;BME280;6053;51.382;6.768;2023-04-06T10:58:19;101242.94;;;13.26;42.42
11987;BME280;6053;51.382;6.768;2023-04-06T11:00:48;101245.56;;;12.90;44.50
11987;BME280;6053;51.382;6.768;2023-04-06T11:03:18;101242.94;;;12.95;44.97
11987;BME280;6053;51.382;6.768;2023-04-06T11:05:48;101239.56;;;13.35;45.56
11987;BME280;6053;51.382;6.768;2023-04-06T11:08:25;101231.94;;;13.19;46.81
11987;BME280;6053;51.382;6.768;2023-04-06T11:11:05;101234.03;;;13.47;43.46
11987;BME280;6053;51.382;6.768;2023-04-06T11:13:41;101235.09;;;12.92;44.13
11987;BME280;6053;51.382;6.768;2023-04-06T11:16:14;101236.88;;;12.87;46.97
11987;BME280;6053;51.382;6.768;2023-04-06T11:18:51;101232.97;;;12.64;46.34
11987;BME280;6053;51.382;6.768;2023-04-06T11:21:20;101230.47;;;13.16;46.88
11987;BME280;6053;51.382;6.768;2023-04-06T11:23:50;101231.38;;;13.29;47.85
11987;BME280;6053;51.382;6.768;2023-04-06T11:26:18;101230.41;;;13.47;45.78
11987;BME280;6053;51.382;6.768;2023-04-06T11:28:47;101228.91;;;13.20;45.33
11987;BME280;6053;51.382;6.768;2023-04-06T11:31:15;101234.44;;;13.09;48.05
11987;BME280;6053;51.382;6.768;2023-04-06T11:33:44;101222.22;;;13.28;47.48
11987;BME280;6053;51.382;6.768;2023-04-06T11:36:13;101224.91;;;13.05;48.43
11987;BME280;6053;51.382;6.768;2023-04-06T11:38:43;101235.22;;;12.86;48.84
11987;BME280;6053;51.382;6.768;2023-04-06T11:41:12;101221.47;;;12.91;50.70
11987;BME280;6053;51.382;6.768;2023-04-06T11:43:46;101223.38;;;13.20;50.43
11987;BME280;6053;51.382;6.768;2023-04-06T11:46:18;101214.69;;;13.17;47.97
11987;BME280;6053;51.382;6.768;2023-04-06T11:48:47;101228.50;;;13.35;53.61
11987;BME280;6053;51.382;6.768;2023-04-06T11:51:22;101221.47;;;12.79;49.51
11987;BME280;6053;51.382;6.768;2023-04-06T11:53:51;101224.75;;;13.30;52.98
11987;BME280;6053;51.382;6.768;2023-04-06T11:56:28;101222.47;;;13.38;49.32
11987;BME280;6053;51.382;6.768;2023-04-06T11:58:58;101218.38;;;13.29;50.10
11987;BME280;6053;51.382;6.768;2023-04-06T12:01:26;101218.28;;;13.17;50.55
11987;BME280;6053;51.382;6.768;2023-04-06T12:03:55;101218.22;;;13.24;49.23
11987;BME280;6053;51.382;6.768;2023-04-06T12:06:24;101226.94;;;13.39;51.41
11987;BME280;6053;51.382;6.768;2023-04-06T12:08:52;101221.44;;;13.21;49.25
11987;BME280;6053;51.382;6.768;2023-04-06T12:11:21;101220.44;;;12.62;48.73
11987;BME280;6053;51.382;6.768;2023-04-06T12:13:50;101218.50;;;13.04;51.38
11987;BME280;6053;51.382;6.768;2023-04-06T12:16:18;101221.47;;;12.91;52.29
11987;BME280;6053;51.382;6.768;2023-04-06T12:18:47;101221.53;;;13.14;50.93
11987;BME280;6053;51.382;6.768;2023-04-06T12:21:15;101212.47;;;13.26;50.98
11987;BME280;6053;51.382;6.768;2023-04-06T12:23:43;101216.81;;;12.91;49.28
11987;BME280;6053;51.382;6.768;2023-04-06T12:26:12;101213.69;;;13.41;50.13
11987;BME280;6053;51.382;6.768;2023-04-06T12:28:40;101216.88;;;13.15;49.79
11987;BME280;6053;51.382;6.768;2023-04-06T12:31:14;101214.63;;;13.35;51.26
11987;BME280;6053;51.382;6.768;2023-04-06T12:33:46;101211.06;;;13.16;51.12
11987;BME280;6053;51.382;6.768;2023-04-06T12:36:15;101206.94;;;13.49;50.68
11987;BME280;6053;51.382;6.768;2023-04-06T12:38:47;101208.09;;;13.18;49.08
11987;BME280;6053;51.382;6.768;2023-04-06T12:41:16;101207.06;;;13.01;52.11
11987;BME280;6053;51.382;6.768;2023-04-06T12:43:45;101200.47;;;13.02;49.80
11987;BME280;6053;51.382;6.768;2023-04-06T12:46:14;101214.91;;;13.04;52.09
11987;BME280;6053;51.382;6.768;2023-04-06T12:48:43;101201.81;;;13.23;52.99
11987;BME280;6053;51.382;6.768;2023-04-06T12:51:11;101208.63;;;13.38;51.06
11987;BME280;6053;51.382;6.768;2023-04-06T12:53:40;101200.41;;;12.90;48.23
11987;BME280;6053;51.382;6.768;2023-04-06T12:56:13;101202.00;;;12.97;53.32
11987;BME280;6053;51.382;6.768;2023-04-06T12:58:42;101205.13;;;13.31;51.08
11987;BME280;6053;51.382;6.768;2023-04-06T13:01:11;101209.09;;;13.71;48.26
11987;BME280;6053;51.382;6.768;2023-04-06T13:03:41;101201.78;;;12.99;50.42
11987;BME280;6053;51.382;6.768;2023-04-06T13:06:10;101198.38;;;12.55;49.56
11987;BME280;6053;51.382;6.768;2023-04-06T13:08:40;101195.09;;;12.77;51.45
11987;BME280;6053;51.382;6.768;2023-04-06T13:11:08;101204.00;;;12.79;49.75
11987;BME280;6053;51.382;6.768;2023-04-06T13:13:37;101196.56;;;12.91;53.53